UAE502 OMDB-VABB
Flight info
| Callsign | UAE502 |
|---|---|
| Flight time | N/A |
| Altitude | 41000 |
| Route | IVURO1F IVURO M677 LALDO B505 NADSO A777 VAXIM L301 KARKU M638 EXOLU POKON2A |
| Aircraft | A359/H-SDE2E3GHIJ1J3J4J5LM1ORWXY/LB1D1 |
Departure
| Time | 2026-04-22 19:51 |
|---|---|
| Airport | Dubai International Airport (OMDB) |
Arrival
| Time | N/A |
|---|---|
| Airport | Chhatrapati Shivaji Maharaj International Airport (VABB) |
| Time | Latitude | Longitude | Altitude | Speed | Heading |
|---|---|---|---|---|---|
| 2026-04-22 19:19 | 25.24560 | 55.36493 | 30 ft | 0 kts | 31° |
| 2026-04-22 19:32 | 25.24553 | 55.36488 | 27 ft | 3 kts | 31° |
| 2026-04-22 19:32 | 25.24533 | 55.36475 | 28 ft | 3 kts | 31° |
| 2026-04-22 19:33 | 25.24517 | 55.36464 | 25 ft | 3 kts | 29° |
| 2026-04-22 19:33 | 25.24497 | 55.36456 | 25 ft | 3 kts | 357° |
| 2026-04-22 19:33 | 25.24477 | 55.36462 | 26 ft | 3 kts | 320° |
| 2026-04-22 19:33 | 25.24462 | 55.36480 | 25 ft | 3 kts | 297° |
| 2026-04-22 19:34 | 25.24454 | 55.36502 | 26 ft | 3 kts | 290° |
| 2026-04-22 19:34 | 25.24447 | 55.36524 | 25 ft | 1 kts | 290° |
| 2026-04-22 19:34 | 25.24446 | 55.36525 | 25 ft | 0 kts | 290° |
| 2026-04-22 19:39 | 25.24448 | 55.36520 | 27 ft | 3 kts | 291° |
| 2026-04-22 19:40 | 25.24468 | 55.36472 | 25 ft | 10 kts | 300° |
| 2026-04-22 19:40 | 25.24517 | 55.36383 | 27 ft | 17 kts | 302° |
| 2026-04-22 19:40 | 25.24583 | 55.36266 | 27 ft | 19 kts | 302° |
| 2026-04-22 19:40 | 25.24656 | 55.36138 | 27 ft | 21 kts | 302° |
| 2026-04-22 19:41 | 25.24737 | 55.35993 | 27 ft | 23 kts | 301° |
| 2026-04-22 19:41 | 25.24824 | 55.35839 | 27 ft | 25 kts | 302° |
| 2026-04-22 19:41 | 25.24916 | 55.35686 | 27 ft | 18 kts | 307° |
| 2026-04-22 19:41 | 25.24966 | 55.35610 | 27 ft | 13 kts | 304° |
| 2026-04-22 19:42 | 25.25018 | 55.35517 | 27 ft | 15 kts | 301° |
| 2026-04-22 19:42 | 25.25056 | 55.35449 | 27 ft | 17 kts | 302° |
| 2026-04-22 19:42 | 25.25124 | 55.35327 | 27 ft | 19 kts | 302° |
| 2026-04-22 19:42 | 25.25208 | 55.35204 | 27 ft | 21 kts | 308° |
| 2026-04-22 19:43 | 25.25374 | 55.34925 | 27 ft | 20 kts | 317° |
| 2026-04-22 19:43 | 25.25492 | 55.34913 | 27 ft | 14 kts | 31° |
| 2026-04-22 19:43 | 25.25581 | 55.34975 | 26 ft | 16 kts | 32° |
| 2026-04-22 19:44 | 25.25683 | 55.35043 | 27 ft | 18 kts | 31° |
| 2026-04-22 19:44 | 25.25747 | 55.35100 | 27 ft | 9 kts | 65° |
| 2026-04-22 19:44 | 25.25746 | 55.35175 | 27 ft | 11 kts | 84° |
| 2026-04-22 19:44 | 25.25796 | 55.35232 | 27 ft | 12 kts | 31° |
| 2026-04-22 19:45 | 25.25873 | 55.35284 | 26 ft | 14 kts | 31° |
| 2026-04-22 19:45 | 25.25962 | 55.35348 | 28 ft | 16 kts | 43° |
| 2026-04-22 19:45 | 25.26010 | 55.35460 | 28 ft | 17 kts | 83° |
| 2026-04-22 19:45 | 25.25970 | 55.35589 | 28 ft | 18 kts | 120° |
| 2026-04-22 19:46 | 25.25900 | 55.35715 | 28 ft | 20 kts | 122° |
| 2026-04-22 19:46 | 25.25823 | 55.35854 | 28 ft | 22 kts | 122° |
| 2026-04-22 19:46 | 25.25738 | 55.36005 | 29 ft | 24 kts | 122° |
| 2026-04-22 19:46 | 25.25647 | 55.36165 | 29 ft | 26 kts | 122° |
| 2026-04-22 19:47 | 25.25549 | 55.36338 | 28 ft | 28 kts | 122° |
| 2026-04-22 19:47 | 25.25445 | 55.36524 | 28 ft | 29 kts | 122° |
| 2026-04-22 19:47 | 25.25334 | 55.36721 | 28 ft | 31 kts | 122° |
| 2026-04-22 19:47 | 25.25218 | 55.36927 | 28 ft | 32 kts | 122° |
| 2026-04-22 19:48 | 25.25098 | 55.37139 | 30 ft | 33 kts | 122° |
| 2026-04-22 19:48 | 25.24993 | 55.37326 | 30 ft | 28 kts | 122° |
| 2026-04-22 19:48 | 25.24888 | 55.37513 | 29 ft | 30 kts | 122° |
| 2026-04-22 19:48 | 25.24779 | 55.37707 | 29 ft | 27 kts | 122° |
| 2026-04-22 19:49 | 25.24728 | 55.37797 | 27 ft | 11 kts | 122° |
| 2026-04-22 19:49 | 25.24724 | 55.37875 | 29 ft | 10 kts | 51° |
| 2026-04-22 19:49 | 25.24780 | 55.37916 | 30 ft | 10 kts | 32° |
| 2026-04-22 19:49 | 25.24846 | 55.37934 | 31 ft | 10 kts | 345° |
| 2026-04-22 19:50 | 25.24888 | 55.37878 | 32 ft | 11 kts | 301° |
| 2026-04-22 19:50 | 25.24986 | 55.37704 | 32 ft | 54 kts | 301° |
| 2026-04-22 19:50 | 25.25314 | 55.37111 | 32 ft | 125 kts | 302° |
| 2026-04-22 19:50 | 25.25872 | 55.36101 | 56 ft | 179 kts | 302° |
| 2026-04-22 19:51 | 25.26518 | 55.34945 | 853 ft | 171 kts | 304° |
| 2026-04-22 19:51 | 25.27158 | 55.33841 | 1606 ft | 175 kts | 304° |
| 2026-04-22 19:51 | 25.27820 | 55.32647 | 2037 ft | 187 kts | 302° |
| 2026-04-22 19:51 | 25.28493 | 55.31413 | 2658 ft | 187 kts | 303° |
| 2026-04-22 19:52 | 25.29267 | 55.30257 | 3297 ft | 188 kts | 316° |
| 2026-04-22 19:52 | 25.30405 | 55.29562 | 3918 ft | 191 kts | 346° |
| 2026-04-22 19:52 | 25.31741 | 55.29456 | 4529 ft | 195 kts | 360° |
| 2026-04-22 19:52 | 25.33129 | 55.29504 | 5020 ft | 205 kts | 0° |
| 2026-04-22 19:53 | 25.34582 | 55.29560 | 5425 ft | 221 kts | 359° |
| 2026-04-22 19:53 | 25.36220 | 55.29617 | 5758 ft | 242 kts | 359° |
| 2026-04-22 19:53 | 25.37931 | 55.29673 | 6348 ft | 250 kts | 360° |
| 2026-04-22 19:53 | 25.39656 | 55.30091 | 6958 ft | 261 kts | 24° |
| 2026-04-22 19:54 | 25.41108 | 55.31341 | 7404 ft | 279 kts | 47° |
| 2026-04-22 19:54 | 25.42384 | 55.33061 | 7856 ft | 296 kts | 52° |
| 2026-04-22 19:54 | 25.43666 | 55.34881 | 8551 ft | 303 kts | 52° |
| 2026-04-22 19:54 | 25.44980 | 55.36728 | 9327 ft | 308 kts | 52° |
| 2026-04-22 19:55 | 25.46331 | 55.38598 | 10091 ft | 313 kts | 51° |
| 2026-04-22 19:55 | 25.47729 | 55.40518 | 10587 ft | 330 kts | 51° |
| 2026-04-22 19:55 | 25.49215 | 55.42568 | 10944 ft | 350 kts | 52° |
| 2026-04-22 19:55 | 25.50710 | 55.44739 | 11304 ft | 368 kts | 54° |
| 2026-04-22 19:56 | 25.51931 | 55.47276 | 11700 ft | 380 kts | 72° |
| 2026-04-22 19:56 | 25.52329 | 55.50176 | 12298 ft | 383 kts | 94° |
| 2026-04-22 19:56 | 25.51788 | 55.53043 | 12963 ft | 383 kts | 115° |
| 2026-04-22 19:56 | 25.50519 | 55.55637 | 13584 ft | 386 kts | 124° |
| 2026-04-22 19:57 | 25.49063 | 55.58158 | 14170 ft | 390 kts | 125° |
| 2026-04-22 19:57 | 25.47583 | 55.60707 | 14766 ft | 395 kts | 125° |
| 2026-04-22 19:57 | 25.46095 | 55.63286 | 15357 ft | 400 kts | 124° |
| 2026-04-22 19:57 | 25.44593 | 55.65903 | 15929 ft | 405 kts | 124° |
| 2026-04-22 19:58 | 25.43127 | 55.68589 | 16510 ft | 412 kts | 119° |
| 2026-04-22 19:58 | 25.42126 | 55.71585 | 17116 ft | 419 kts | 106° |
| 2026-04-22 19:58 | 25.41437 | 55.74735 | 17725 ft | 424 kts | 104° |
| 2026-04-22 19:58 | 25.40776 | 55.77933 | 18303 ft | 429 kts | 104° |
| 2026-04-22 19:59 | 25.40225 | 55.81196 | 18877 ft | 433 kts | 100° |
| 2026-04-22 20:00 | 25.37613 | 56.01439 | 22387 ft | 455 kts | 99° |
| 2026-04-22 20:00 | 25.37176 | 56.04921 | 22949 ft | 459 kts | 99° |
| 2026-04-22 20:01 | 25.36460 | 56.08366 | 23492 ft | 462 kts | 109° |
| 2026-04-22 20:01 | 25.35403 | 56.11745 | 23989 ft | 465 kts | 112° |
| 2026-04-22 20:01 | 25.34227 | 56.15087 | 24506 ft | 468 kts | 114° |
| 2026-04-22 20:01 | 25.32975 | 56.18425 | 25019 ft | 472 kts | 114° |
| 2026-04-22 20:02 | 25.31681 | 56.21779 | 25545 ft | 475 kts | 115° |
| 2026-04-22 20:02 | 25.30377 | 56.25140 | 26055 ft | 479 kts | 115° |
| 2026-04-22 20:02 | 25.29078 | 56.28495 | 26556 ft | 482 kts | 115° |
| 2026-04-22 20:02 | 25.27758 | 56.31921 | 27027 ft | 486 kts | 114° |
| 2026-04-22 20:03 | 25.26435 | 56.35373 | 27543 ft | 490 kts | 114° |
| 2026-04-22 20:03 | 25.25104 | 56.38856 | 28026 ft | 493 kts | 114° |
| 2026-04-22 20:03 | 25.23766 | 56.42363 | 28512 ft | 497 kts | 114° |
| 2026-04-22 20:03 | 25.22419 | 56.45891 | 28995 ft | 500 kts | 114° |
| 2026-04-22 20:04 | 25.21061 | 56.49446 | 29467 ft | 504 kts | 114° |
| 2026-04-22 20:04 | 25.19688 | 56.53036 | 29919 ft | 507 kts | 114° |
| 2026-04-22 20:04 | 25.18327 | 56.56592 | 30277 ft | 511 kts | 114° |
| 2026-04-22 20:04 | 25.16935 | 56.60223 | 30610 ft | 516 kts | 114° |
| 2026-04-22 20:05 | 25.15530 | 56.63885 | 30930 ft | 520 kts | 114° |
| 2026-04-22 20:05 | 25.14119 | 56.67560 | 31275 ft | 523 kts | 114° |
| 2026-04-22 20:05 | 25.12693 | 56.71269 | 31607 ft | 526 kts | 114° |
| 2026-04-22 20:05 | 25.11254 | 56.75009 | 31935 ft | 529 kts | 114° |
| 2026-04-22 20:06 | 25.09809 | 56.78762 | 32235 ft | 533 kts | 114° |
| 2026-04-22 20:06 | 25.08356 | 56.82531 | 32503 ft | 536 kts | 114° |
| 2026-04-22 20:06 | 25.06891 | 56.86331 | 32824 ft | 538 kts | 114° |
| 2026-04-22 20:06 | 25.05430 | 56.90116 | 33343 ft | 536 kts | 114° |
| 2026-04-22 20:07 | 25.03967 | 56.93900 | 33756 ft | 536 kts | 114° |
| 2026-04-22 20:07 | 25.02504 | 56.97684 | 34069 ft | 537 kts | 114° |
| 2026-04-22 20:07 | 25.01035 | 57.01478 | 34321 ft | 539 kts | 114° |
| 2026-04-22 20:07 | 24.99558 | 57.05290 | 34571 ft | 541 kts | 114° |
| 2026-04-22 20:08 | 24.98075 | 57.09112 | 34829 ft | 543 kts | 114° |
| 2026-04-22 20:08 | 24.96587 | 57.12946 | 35093 ft | 544 kts | 114° |
| 2026-04-22 20:08 | 24.95100 | 57.16774 | 35449 ft | 543 kts | 114° |
| 2026-04-22 20:08 | 24.93608 | 57.20612 | 35650 ft | 546 kts | 114° |
| 2026-04-22 20:09 | 24.92111 | 57.24457 | 35862 ft | 548 kts | 114° |
| 2026-04-22 20:09 | 24.90604 | 57.28326 | 36104 ft | 550 kts | 114° |
| 2026-04-22 20:09 | 24.89112 | 57.32151 | 36335 ft | 551 kts | 114° |
| 2026-04-22 20:09 | 24.87575 | 57.36090 | 36578 ft | 553 kts | 114° |
| 2026-04-22 20:10 | 24.86069 | 57.39944 | 36777 ft | 554 kts | 114° |
| 2026-04-22 20:10 | 24.84544 | 57.43844 | 37044 ft | 555 kts | 114° |
| 2026-04-22 20:10 | 24.83015 | 57.47753 | 37286 ft | 556 kts | 114° |
| 2026-04-22 20:10 | 24.81482 | 57.51666 | 37485 ft | 558 kts | 114° |
| 2026-04-22 20:11 | 24.79939 | 57.55601 | 37703 ft | 559 kts | 114° |
| 2026-04-22 20:11 | 24.78396 | 57.59535 | 37921 ft | 560 kts | 114° |
| 2026-04-22 20:11 | 24.76850 | 57.63471 | 38118 ft | 562 kts | 114° |
| 2026-04-22 20:11 | 24.75292 | 57.67431 | 38325 ft | 563 kts | 114° |
| 2026-04-22 20:12 | 24.73736 | 57.71387 | 38535 ft | 564 kts | 114° |
| 2026-04-22 20:12 | 24.72180 | 57.75338 | 38734 ft | 564 kts | 114° |
| 2026-04-22 20:12 | 24.71149 | 57.77954 | 38876 ft | 563 kts | 114° |
| 2026-04-22 20:12 | 24.69068 | 57.83228 | 39204 ft | 561 kts | 114° |
| 2026-04-22 20:13 | 24.67513 | 57.87165 | 39434 ft | 560 kts | 114° |
| 2026-04-22 20:13 | 24.65978 | 57.91048 | 39662 ft | 559 kts | 114° |
| 2026-04-22 20:13 | 24.64425 | 57.94974 | 39867 ft | 558 kts | 114° |
| 2026-04-22 20:13 | 24.62879 | 57.98878 | 40125 ft | 556 kts | 114° |
| 2026-04-22 20:14 | 24.61336 | 58.02771 | 40358 ft | 555 kts | 114° |
| 2026-04-22 20:14 | 24.59791 | 58.06666 | 40553 ft | 554 kts | 114° |
| 2026-04-22 20:14 | 24.58266 | 58.10504 | 40730 ft | 554 kts | 114° |
| 2026-04-22 20:15 | 24.55182 | 58.18261 | 40808 ft | 554 kts | 114° |
| 2026-04-22 20:15 | 24.52097 | 58.26008 | 40806 ft | 553 kts | 114° |
| 2026-04-22 20:16 | 24.49005 | 58.33755 | 40803 ft | 553 kts | 114° |
| 2026-04-22 20:16 | 24.45913 | 58.41489 | 40795 ft | 553 kts | 114° |
| 2026-04-22 20:17 | 24.42815 | 58.49225 | 40798 ft | 553 kts | 114° |
| 2026-04-22 20:17 | 24.39738 | 58.56897 | 40800 ft | 552 kts | 114° |
| 2026-04-22 20:18 | 24.36639 | 58.64609 | 40797 ft | 552 kts | 114° |
| 2026-04-22 20:18 | 24.33533 | 58.72326 | 40797 ft | 552 kts | 114° |
| 2026-04-22 20:19 | 24.30950 | 58.78732 | 40798 ft | 552 kts | 114° |
| 2026-04-22 20:19 | 24.27836 | 58.86442 | 40799 ft | 552 kts | 114° |
| 2026-04-22 20:20 | 24.24720 | 58.94146 | 40795 ft | 552 kts | 114° |
| 2026-04-22 20:20 | 24.21619 | 59.01799 | 40798 ft | 552 kts | 115° |
| 2026-04-22 20:21 | 24.18499 | 59.09483 | 40796 ft | 551 kts | 114° |
| 2026-04-22 20:21 | 24.15376 | 59.17164 | 40796 ft | 551 kts | 114° |
| 2026-04-22 20:22 | 24.12272 | 59.24785 | 40797 ft | 551 kts | 115° |
| 2026-04-22 20:22 | 24.09143 | 59.32454 | 40786 ft | 551 kts | 115° |
| 2026-04-22 20:23 | 24.06016 | 59.40105 | 40802 ft | 550 kts | 115° |
| 2026-04-22 20:23 | 24.02890 | 59.47740 | 40802 ft | 549 kts | 115° |
| 2026-04-22 20:24 | 23.99758 | 59.55376 | 40805 ft | 549 kts | 115° |
| 2026-04-22 20:24 | 23.96629 | 59.62994 | 40804 ft | 549 kts | 115° |
| 2026-04-22 20:25 | 23.93494 | 59.70610 | 40804 ft | 548 kts | 115° |
| 2026-04-22 20:25 | 23.90387 | 59.78149 | 40796 ft | 548 kts | 115° |
| 2026-04-22 20:26 | 23.88285 | 59.83240 | 40808 ft | 548 kts | 115° |